Time;durP1;ratioP1;P1;durP2;ratioP2;P2;SDS_P1;SDS_P2;PMS_P1;PMS_P2;Temp;Humidity;BMP_temperature;BMP_pressure;BME280_temperature;BME280_humidity;BME280_pressure;Samples;Min_cycle;Max_cycle;Signal;HPM_P1;HPM_P2
2022/07/26 00:02:04;;;;;;;;;;;;;;;23.38;48.02;100264.34;5003987;28;20077;-67
2022/07/26 00:04:29;;;;;;;3.23;1.20;;;;;;;23.34;47.80;100263.22;5006473;28;19936;-67
2022/07/26 00:06:55;;;;;;;2.90;1.30;;;;;;;23.27;48.13;100267.94;5011592;28;20073;-65
2022/07/26 00:09:20;;;;;;;1.48;1.00;;;;;;;23.17;48.07;100267.72;5008747;28;20065;-65
2022/07/26 00:11:46;;;;;;;1.10;0.88;;;;;;;23.09;48.04;100266.25;5007581;28;20096;-65
2022/07/26 00:14:11;;;;;;;2.15;0.90;;;;;;;23.02;48.26;100269.09;5009616;28;20475;-66
2022/07/26 00:16:37;;;;;;;2.50;1.20;;;;;;;22.95;48.79;100270.25;5007544;28;20045;-65
2022/07/26 00:19:03;;;;;;;1.70;1.02;;;;;;;22.85;48.55;100278.97;5008728;28;20048;-65
2022/07/26 00:21:29;;;;;;;1.48;0.90;;;;;;;22.77;48.90;100282.03;5010340;28;20130;-65
2022/07/26 00:23:55;;;;;;;2.45;0.98;;;;;;;22.66;49.02;100278.31;5008258;28;20116;-65
2022/07/26 00:26:20;;;;;;;2.78;1.10;;;;;;;22.56;49.12;100278.91;5009874;28;20038;-65
2022/07/26 00:28:45;;;;;;;2.22;1.20;;;;;;;22.50;49.57;100281.72;5004015;28;20064;-65
2022/07/26 00:31:11;;;;;;;1.63;0.90;;;;;;;22.42;49.89;100291.00;5009898;28;20041;-65
2022/07/26 00:33:36;;;;;;;1.35;1.02;;;;;;;22.35;49.52;100299.19;5006884;28;20105;-65
2022/07/26 00:36:02;;;;;;;1.70;1.10;;;;;;;22.31;49.67;100294.50;5014892;28;20042;-65
2022/07/26 00:38:27;;;;;;;1.70;0.98;;;;;;;22.23;49.79;100296.50;5010333;28;20124;-65
2022/07/26 00:40:52;;;;;;;1.75;1.00;;;;;;;22.16;50.04;100301.16;5011501;28;20034;-65
2022/07/26 00:43:18;;;;;;;1.23;0.80;;;;;;;22.10;50.36;100299.41;5010234;28;20065;-65
2022/07/26 00:45:43;;;;;;;2.33;1.25;;;;;;;22.01;50.69;100311.59;5014046;28;20300;-65
2022/07/26 00:48:08;;;;;;;1.33;0.95;;;;;;;21.93;50.69;100312.75;5008349;28;20037;-66
2022/07/26 00:50:34;;;;;;;1.95;1.00;;;;;;;21.85;50.94;100305.81;5013121;28;20642;-65
2022/07/26 00:52:59;;;;;;;2.50;1.13;;;;;;;21.80;51.29;100300.31;5009395;28;20030;-65
2022/07/26 00:55:25;;;;;;;1.50;1.00;;;;;;;21.77;51.63;100300.78;5010391;28;20040;-65
2022/07/26 00:57:50;;;;;;;2.58;1.10;;;;;;;21.77;51.15;100308.84;5008028;28;20281;-65
2022/07/26 01:00:21;;;;;;;2.40;1.10;;;;;;;21.72;51.46;100307.91;5006608;28;20042;-65
2022/07/26 01:02:46;;;;;;;1.17;0.98;;;;;;;21.66;51.52;100317.72;5005869;28;20494;-65
2022/07/26 01:05:12;;;;;;;1.77;1.00;;;;;;;21.61;51.23;100320.28;5006665;28;20057;-65
2022/07/26 01:07:38;;;;;;;2.50;1.15;;;;;;;21.52;52.10;100321.63;5008621;28;20061;-65
2022/07/26 01:10:07;;;;;;;2.00;1.10;;;;;;;21.50;52.30;100321.03;5008330;28;20576;-65
2022/07/26 01:12:33;;;;;;;2.08;0.98;;;;;;;21.46;52.51;100325.25;5006795;28;20033;-65
2022/07/26 01:14:58;;;;;;;1.98;1.10;;;;;;;21.37;53.00;100325.53;5005296;28;20041;-65
2022/07/26 01:17:23;;;;;;;1.35;1.00;;;;;;;21.33;52.95;100321.69;5006609;28;20049;-65
2022/07/26 01:19:48;;;;;;;2.00;1.00;;;;;;;21.25;52.91;100321.97;5005262;28;20038;-65
2022/07/26 01:22:14;;;;;;;1.50;0.90;;;;;;;21.30;53.38;100327.50;5006806;28;20413;-65
2022/07/26 01:24:39;;;;;;;1.98;0.90;;;;;;;21.17;53.61;100333.06;5007850;28;20037;-65
2022/07/26 01:27:04;;;;;;;1.38;0.88;;;;;;;21.17;54.09;100325.00;5009301;28;20409;-65
2022/07/26 01:29:29;;;;;;;;;;;;;;;20.99;55.35;100333.88;5008569;28;20116;-65
2022/07/26 01:31:55;;;;;;;;;;;;;;;20.85;56.09;100330.53;5008336;28;19926;-65
2022/07/26 01:34:20;;;;;;;1.97;1.33;;;;;;;20.74;56.00;100336.66;5007403;28;19979;-65
2022/07/26 01:36:45;;;;;;;1.75;1.20;;;;;;;20.66;55.52;100336.94;5009200;28;20398;-65
2022/07/26 01:39:11;;;;;;;1.50;1.10;;;;;;;20.60;55.44;100335.97;5005949;28;20518;-65
2022/07/26 01:41:36;;;;;;;1.67;1.10;;;;;;;20.53;55.63;100341.38;5006658;28;20066;-65
2022/07/26 01:44:02;;;;;;;1.80;1.10;;;;;;;20.46;55.73;100337.94;5003778;28;20038;-69
2022/07/26 01:46:28;;;;;;;1.42;1.20;;;;;;;20.37;55.87;100336.56;5004538;28;20093;-65
2022/07/26 01:48:53;;;;;;;2.33;1.10;;;;;;;20.31;55.93;100334.78;5005785;28;20038;-65
2022/07/26 01:51:18;;;;;;;2.17;1.05;;;;;;;20.28;55.84;100336.03;5006933;28;20107;-65
2022/07/26 01:53:44;;;;;;;2.33;1.10;;;;;;;20.25;56.14;100338.34;5011290;28;20258;-65
2022/07/26 01:56:10;;;;;;;2.13;1.20;;;;;;;20.20;56.21;100338.19;5008191;28;20053;-65
2022/07/26 01:58:36;;;;;;;2.03;1.10;;;;;;;20.15;56.63;100336.97;5004079;28;20582;-65
2022/07/26 02:01:01;;;;;;;2.03;1.20;;;;;;;20.12;56.87;100348.16;5005661;28;20547;-65
2022/07/26 02:03:26;;;;;;;1.60;0.93;;;;;;;20.08;56.93;100346.94;5006685;28;20033;-65
2022/07/26 02:05:52;;;;;;;2.22;1.13;;;;;;;20.05;57.27;100344.69;5004366;28;20510;-65
2022/07/26 02:08:17;;;;;;;1.98;1.10;;;;;;;20.01;57.42;100348.84;5005539;28;20034;-65
2022/07/26 02:11:01;;;;;;;1.88;1.10;;;;;;;19.96;57.60;100351.38;5005050;28;20038;-65
2022/07/26 02:13:37;;;;;;;1.75;1.23;;;;;;;19.92;57.55;100350.97;4998946;28;20510;-65
2022/07/26 02:16:05;;;;;;;1.48;1.00;;;;;;;20.03;57.46;100352.16;5004655;28;20813;-66
2022/07/26 02:18:30;;;;;;;2.88;1.00;;;;;;;20.00;57.93;100354.44;5005437;28;20122;-65
2022/07/26 02:20:57;;;;;;;2.45;1.30;;;;;;;19.98;57.94;100353.84;5004450;28;21469;-65
2022/07/26 02:23:23;;;;;;;2.80;1.15;;;;;;;19.96;57.80;100351.38;5007218;28;20033;-65
2022/07/26 02:25:48;;;;;;;2.45;1.25;;;;;;;19.96;58.06;100354.06;5001006;28;20038;-65
2022/07/26 02:28:15;;;;;;;2.05;1.30;;;;;;;19.96;58.07;100351.38;5003156;28;20458;-65
2022/07/26 02:30:43;;;;;;;1.63;1.13;;;;;;;19.99;57.87;100353.63;5006562;28;21389;-65
2022/07/26 02:33:08;;;;;;;2.17;1.20;;;;;;;20.00;58.09;100343.69;5006229;28;20173;-65
2022/07/26 02:35:34;;;;;;;1.67;1.02;;;;;;;20.03;58.02;100356.69;5007998;28;20093;-65
2022/07/26 02:38:01;;;;;;;2.05;1.05;;;;;;;20.07;57.99;100352.53;5005369;28;20045;-65
2022/07/26 02:40:27;;;;;;;2.53;1.33;;;;;;;20.09;57.92;100359.34;5007787;28;20509;-65
2022/07/26 02:42:52;;;;;;;1.73;1.00;;;;;;;20.12;57.93;100355.41;5006132;28;20184;-65
2022/07/26 02:45:18;;;;;;;2.25;1.10;;;;;;;20.13;57.71;100363.22;5009275;28;20049;-65
2022/07/26 02:47:48;;;;;;;2.17;1.20;;;;;;;20.09;57.84;100363.88;5009390;28;20032;-64
2022/07/26 02:50:15;;;;;;;2.03;1.02;;;;;;;20.02;58.36;100366.63;5004905;28;20113;-65
2022/07/26 02:52:41;;;;;;;2.20;1.30;;;;;;;19.92;58.44;100371.63;5009174;28;20061;-65
2022/07/26 02:55:06;;;;;;;1.60;1.00;;;;;;;19.83;58.45;100371.09;5011068;28;20053;-65
2022/07/26 02:57:32;;;;;;;1.33;0.95;;;;;;;19.73;58.33;100368.88;5003865;28;20459;-65
2022/07/26 02:59:57;;;;;;;3.22;1.48;;;;;;;19.67;58.67;100367.03;5004285;28;20462;-65
2022/07/26 03:02:22;;;;;;;1.90;1.20;;;;;;;19.65;58.40;100361.03;5005407;28;20042;-65
2022/07/26 03:04:47;;;;;;;2.15;1.20;;;;;;;19.64;58.60;100356.72;5011016;28;20277;-64
2022/07/26 03:07:13;;;;;;;2.17;1.20;;;;;;;19.60;58.49;100355.50;5004306;28;20033;-64
2022/07/26 03:09:38;;;;;;;1.92;1.13;;;;;;;19.53;58.64;100362.75;5008694;28;20053;-64
2022/07/26 03:12:03;;;;;;;2.00;1.30;;;;;;;19.45;59.15;100363.84;5004393;28;20066;-65
2022/07/26 03:14:29;;;;;;;2.13;1.40;;;;;;;19.36;59.41;100364.31;5007603;28;20883;-64
2022/07/26 03:16:54;;;;;;;2.27;1.10;;;;;;;19.27;59.82;100361.84;5006686;28;20060;-65
2022/07/26 03:19:19;;;;;;;2.07;1.40;;;;;;;19.21;60.01;100361.88;5006564;28;21685;-65
2022/07/26 03:21:44;;;;;;;2.63;1.50;;;;;;;19.15;60.51;100360.06;5006716;28;20789;-64
2022/07/26 03:24:10;;;;;;;2.17;1.30;;;;;;;19.08;60.78;100360.91;5004678;28;20046;-65
2022/07/26 03:26:35;;;;;;;1.90;1.58;;;;;;;19.02;61.76;100363.59;5009452;28;20275;-65
2022/07/26 03:29:00;;;;;;;2.95;1.40;;;;;;;18.99;61.75;100364.03;5005900;28;20041;-64
2022/07/26 03:31:26;;;;;;;2.15;1.42;;;;;;;18.96;61.77;100365.28;5005989;28;20041;-64
2022/07/26 03:33:51;;;;;;;3.13;1.63;;;;;;;18.97;61.91;100368.75;5006039;28;20095;-65
2022/07/26 03:36:16;;;;;;;2.20;1.42;;;;;;;18.96;61.70;100362.59;5005188;28;20433;-65
2022/07/26 03:38:42;;;;;;;1.92;1.40;;;;;;;18.97;61.86;100360.72;5011555;28;20120;-65
2022/07/26 03:41:07;;;;;;;1.60;1.20;;;;;;;18.98;61.90;100362.38;5010882;28;20157;-65
2022/07/26 03:43:32;;;;;;;2.92;1.25;;;;;;;19.00;61.22;100368.38;5003053;28;20044;-64
2022/07/26 03:45:57;;;;;;;1.63;1.10;;;;;;;19.05;61.47;100369.38;5006291;28;20132;-65
2022/07/26 03:48:23;;;;;;;3.08;1.40;;;;;;;19.17;61.46;100371.41;5009309;28;20265;-65
2022/07/26 03:50:48;;;;;;;3.25;1.60;;;;;;;19.28;61.36;100368.88;5009169;28;20116;-65
2022/07/26 03:53:13;;;;;;;3.05;1.50;;;;;;;19.37;61.41;100361.38;5009631;28;20057;-65
2022/07/26 03:58:22;;;;;;;2.92;1.50;;;;;;;19.55;61.41;100363.38;5011892;28;20517;-64
2022/07/26 04:00:48;;;;;;;2.33;1.58;;;;;;;19.62;61.41;100369.53;5016755;28;20034;-65
2022/07/26 04:03:13;;;;;;;2.45;1.35;;;;;;;19.67;61.30;100364.34;5010666;28;20120;-65
2022/07/26 04:05:39;;;;;;;2.17;1.40;;;;;;;19.70;61.24;100358.56;5018604;28;20068;-65
2022/07/26 04:08:04;;;;;;;2.10;1.40;;;;;;;19.75;61.19;100365.97;5010328;28;20449;-65
2022/07/26 04:10:30;;;;;;;2.08;1.50;;;;;;;19.77;61.31;100363.88;5012341;28;20061;-65
2022/07/26 04:12:55;;;;;;;2.45;1.52;;;;;;;19.74;61.63;100364.34;5011486;28;20041;-65
2022/07/26 04:15:20;;;;;;;1.67;1.15;;;;;;;19.67;62.02;100369.69;5010065;28;20678;-65
2022/07/26 04:17:47;;;;;;;2.05;1.48;;;;;;;19.59;62.41;100369.94;5009461;28;20041;-65
2022/07/26 04:20:13;;;;;;;3.10;1.58;;;;;;;19.51;62.74;100370.19;5010862;28;20584;-65
2022/07/26 04:22:39;;;;;;;3.83;1.48;;;;;;;19.51;62.07;100364.84;5015131;28;20064;-65
2022/07/26 04:25:06;;;;;;;1.85;1.20;;;;;;;19.58;62.11;100378.22;5009970;28;20947;-65
2022/07/26 04:27:32;;;;;;;1.65;1.10;;;;;;;19.66;61.96;100376.13;5008792;28;20128;-64
2022/07/26 04:29:58;;;;;;;2.92;1.20;;;;;;;19.78;61.69;100376.25;5006796;28;20042;-64
2022/07/26 04:32:23;;;;;;;2.40;1.20;;;;;;;19.86;61.76;100384.06;5009107;28;20045;-65
2022/07/26 04:34:48;;;;;;;1.80;1.10;;;;;;;19.97;61.23;100385.22;5007558;28;20041;-65
2022/07/26 04:37:13;;;;;;;2.50;1.25;;;;;;;20.03;61.74;100387.03;5009759;28;20706;-65
2022/07/26 04:39:39;;;;;;;3.67;1.50;;;;;;;20.09;61.44;100388.88;5013860;28;20045;-65
2022/07/26 04:42:04;;;;;;;2.05;1.30;;;;;;;20.13;61.63;100394.63;5016270;28;20301;-65
2022/07/26 04:44:29;;;;;;;1.42;1.05;;;;;;;20.17;61.55;100395.00;5004924;28;20044;-65
2022/07/26 04:46:55;;;;;;;2.00;1.03;;;;;;;20.24;61.58;100399.28;5011057;28;20046;-65
2022/07/26 04:49:20;;;;;;;1.20;0.83;;;;;;;20.31;61.18;100408.09;5010546;28;20289;-65
2022/07/26 04:51:45;;;;;;;1.70;1.10;;;;;;;20.33;61.33;100407.88;5011116;28;20639;-65
2022/07/26 04:54:10;;;;;;;2.85;1.40;;;;;;;20.34;61.03;100413.03;5011695;28;20455;-65
2022/07/26 04:56:36;;;;;;;1.73;1.23;;;;;;;20.39;60.76;100416.94;5008841;28;20469;-64
2022/07/26 04:59:01;;;;;;;3.25;1.60;;;;;;;20.44;60.78;100415.22;5006602;28;20800;-64
2022/07/26 05:01:26;;;;;;;3.03;1.70;;;;;;;20.49;60.42;100415.38;5006059;28;20037;-64
2022/07/26 05:03:52;;;;;;;2.28;1.40;;;;;;;20.51;60.34;100412.50;5005043;28;20265;-65
2022/07/26 05:06:17;;;;;;;3.38;1.70;;;;;;;20.49;60.16;100419.94;5000435;28;20052;-65
2022/07/26 05:08:42;;;;;;;2.50;1.50;;;;;;;20.47;59.90;100417.47;5009059;28;20037;-66
2022/07/26 05:11:08;;;;;;;2.40;1.65;;;;;;;20.45;59.82;100416.03;5007717;28;20093;-64
2022/07/26 05:13:33;;;;;;;4.10;1.65;;;;;;;20.44;59.90;100427.84;5008623;28;20041;-64
2022/07/26 05:15:59;;;;;;;2.07;1.40;;;;;;;20.49;59.78;100431.50;5008737;28;20048;-64
2022/07/26 05:18:24;;;;;;;2.67;1.50;;;;;;;20.52;60.06;100436.47;5012327;28;20713;-64
2022/07/26 05:20:50;;;;;;;2.63;1.80;;;;;;;20.54;59.39;100439.72;5010862;28;20454;-63
2022/07/26 05:23:15;;;;;;;3.47;1.50;;;;;;;20.63;59.87;100443.00;5016532;28;20034;-63
2022/07/26 05:25:41;;;;;;;3.28;1.95;;;;;;;20.64;58.41;100446.50;5009545;28;20080;-64
2022/07/26 05:28:06;;;;;;;3.25;2.10;;;;;;;20.69;58.49;100446.66;5014108;28;20516;-64
2022/07/26 05:30:31;;;;;;;2.72;1.63;;;;;;;20.75;57.99;100445.78;5009891;28;20036;-64
2022/07/26 05:32:57;;;;;;;3.03;1.58;;;;;;;20.78;57.51;100456.09;5007237;28;20057;-64
2022/07/26 05:35:22;;;;;;;2.13;1.33;;;;;;;20.96;57.36;100450.75;5011968;28;20041;-65
2022/07/26 05:37:47;;;;;;;2.95;1.55;;;;;;;21.11;56.74;100455.75;5011502;28;20034;-65
2022/07/26 05:40:12;;;;;;;2.80;1.23;;;;;;;21.19;56.46;100450.09;5008002;28;20042;-65
2022/07/26 05:42:38;;;;;;;2.33;1.30;;;;;;;21.23;56.33;100455.03;5008283;28;20045;-64
2022/07/26 05:45:04;;;;;;;3.03;1.70;;;;;;;21.30;56.66;100461.97;5006195;28;20529;-64
2022/07/26 05:47:30;;;;;;;2.53;1.25;;;;;;;21.38;56.40;100458.16;5002651;28;20041;-65
2022/07/26 05:49:55;;;;;;;2.00;1.20;;;;;;;21.75;55.72;100455.47;5007885;28;20032;-66
2022/07/26 05:52:22;;;;;;;2.67;1.30;;;;;;;21.89;55.02;100456.94;5008070;28;20030;-65
2022/07/26 05:54:48;;;;;;;2.58;1.20;;;;;;;21.98;54.91;100460.94;5008735;28;20095;-65
2022/07/26 05:57:13;;;;;;;5.43;1.50;;;;;;;21.88;54.34;100454.47;5009108;28;20337;-66
2022/07/26 05:59:38;;;;;;;3.35;1.30;;;;;;;21.73;54.76;100454.88;5011102;28;20133;-66
2022/07/26 06:02:04;;;;;;;3.25;1.40;;;;;;;21.64;54.58;100454.34;5013473;28;20041;-65
2022/07/26 06:04:29;;;;;;;2.65;1.33;;;;;;;21.54;55.10;100462.97;5008482;28;20046;-67
2022/07/26 06:06:54;;;;;;;3.42;1.30;;;;;;;21.47;55.57;100462.22;5010191;28;20042;-67
2022/07/26 06:09:21;;;;;;;2.65;1.40;;;;;;;21.44;55.66;100460.00;5008165;28;20061;-67
2022/07/26 06:11:46;;;;;;;2.80;1.30;;;;;;;21.43;55.27;100463.72;5017130;28;20061;-66
2022/07/26 06:14:12;;;;;;;2.28;1.10;;;;;;;21.55;55.36;100463.81;5008487;28;20054;-66
2022/07/26 06:16:37;;;;;;;2.17;1.20;;;;;;;21.90;54.84;100465.81;5009137;28;20264;-66
2022/07/26 06:19:02;;;;;;;3.63;1.30;;;;;;;22.24;53.76;100467.03;5008563;28;20030;-65
2022/07/26 06:21:27;;;;;;;2.35;1.27;;;;;;;22.83;53.22;100464.41;5008927;28;20088;-66
2022/07/26 06:23:53;;;;;;;3.25;0.95;;;;;;;23.25;51.91;100462.41;5008020;28;20030;-66
2022/07/26 06:26:18;;;;;;;3.05;1.10;;;;;;;23.42;51.66;100467.09;5007642;28;20058;-65
2022/07/26 06:28:43;;;;;;;4.75;1.00;;;;;;;23.53;51.06;100464.34;5008482;28;20391;-65
2022/07/26 06:31:09;;;;;;;3.97;1.20;;;;;;;23.39;50.39;100460.28;5008698;28;20080;-65
2022/07/26 06:33:35;;;;;;;1.85;1.23;;;;;;;23.27;50.41;100462.19;5014902;28;20080;-65
2022/07/26 06:36:01;;;;;;;2.20;0.98;;;;;;;23.54;49.64;100465.16;5008608;28;20475;-66
2022/07/26 06:38:27;;;;;;;2.55;1.00;;;;;;;23.95;48.88;100469.53;5007480;28;20037;-65
2022/07/26 06:40:52;;;;;;;4.50;1.05;;;;;;;24.16;47.84;100469.88;5009215;28;20482;-66
2022/07/26 06:43:17;;;;;;;3.75;1.20;;;;;;;24.46;47.99;100469.63;5006118;28;20038;-66
2022/07/26 06:45:43;;;;;;;3.83;1.08;;;;;;;24.92;47.03;100470.31;5015423;28;20053;-66
2022/07/26 06:48:08;;;;;;;2.17;1.20;;;;;;;25.24;45.96;100469.69;5006724;28;20096;-66
2022/07/26 06:50:33;;;;;;;3.90;1.02;;;;;;;25.61;45.14;100469.09;5008376;28;20281;-66
2022/07/26 06:52:59;;;;;;;1.58;0.80;;;;;;;26.23;44.50;100463.25;5007723;28;20563;-67
2022/07/26 06:55:24;;;;;;;2.50;1.08;;;;;;;26.07;44.01;100469.59;5009230;28;20037;-67
2022/07/26 06:57:49;;;;;;;2.40;1.20;;;;;;;25.55;43.96;100468.22;5008385;28;20026;-66
2022/07/26 07:00:15;;;;;;;3.30;1.00;;;;;;;25.20;44.51;100468.59;5007298;28;20041;-66
2022/07/26 07:02:40;;;;;;;2.70;1.17;;;;;;;24.89;44.90;100473.53;5013281;28;20676;-66
2022/07/26 07:05:06;;;;;;;2.13;0.98;;;;;;;24.61;45.30;100466.34;5006170;28;20038;-66
2022/07/26 07:07:34;;;;;;;3.42;1.10;;;;;;;24.32;45.58;100477.19;4998392;28;20498;-66
2022/07/26 07:09:59;;;;;;;;;;;;;;;24.00;46.30;100473.38;5013766;28;20037;-66
2022/07/26 07:12:24;;;;;;;;;;;;;;;24.10;46.39;100478.97;5020022;28;19912;-66
2022/07/26 07:14:50;;;;;;;;;;;;;;;24.28;45.97;100467.94;5012443;28;20409;-67
2022/07/26 07:17:18;;;;;;;2.33;1.13;;;;;;;24.91;44.92;100481.41;5006994;28;19913;-66
2022/07/26 07:19:44;;;;;;;2.28;1.00;;;;;;;25.12;45.28;100479.78;5007699;28;20124;-67
2022/07/26 07:22:10;;;;;;;3.47;0.93;;;;;;;25.11;44.91;100484.41;5005712;28;20184;-67
2022/07/26 07:24:36;;;;;;;2.40;1.00;;;;;;;24.99;44.56;100486.38;5008480;28;20037;-66
2022/07/26 07:27:01;;;;;;;1.75;1.00;;;;;;;24.78;44.92;100485.25;5008413;28;20494;-67
2022/07/26 07:29:26;;;;;;;2.60;1.20;;;;;;;24.74;45.51;100479.53;5008255;28;20395;-66
2022/07/26 07:31:52;;;;;;;3.15;1.00;;;;;;;25.11;45.04;100480.88;5008208;28;20037;-66
2022/07/26 07:34:21;;;;;;;2.03;0.73;;;;;;;26.25;44.29;100468.44;5006796;28;20409;-66
2022/07/26 07:36:46;;;;;;;2.15;0.80;;;;;;;26.90;42.84;100475.47;5007924;28;20033;-67
2022/07/26 07:39:11;;;;;;;;;;;;;;;27.40;41.28;100486.09;5010575;28;20046;-67
2022/07/26 07:41:38;;;;;;;1.77;0.75;;;;;;;27.24;41.00;100483.28;5027933;28;20160;-66
2022/07/26 07:44:04;;;;;;;1.95;0.90;;;;;;;27.40;40.59;100477.94;5023892;28;20127;-67
2022/07/26 07:46:29;;;;;;;1.98;0.70;;;;;;;27.62;40.13;100481.28;5027916;28;20034;-67
2022/07/26 07:48:55;;;;;;;1.67;0.60;;;;;;;27.95;39.40;100468.34;5010744;28;20038;-66
2022/07/26 07:51:20;;;;;;;2.15;0.80;;;;;;;28.52;38.41;100477.41;5006445;28;20026;-66
2022/07/26 07:53:46;;;;;;;2.03;0.75;;;;;;;28.97;37.02;100471.09;5015036;28;20041;-67
2022/07/26 07:56:11;;;;;;;0.63;0.40;;;;;;;29.18;35.89;100463.72;5026179;28;20419;-66
2022/07/26 07:58:36;;;;;;;1.10;0.63;;;;;;;29.44;36.37;100471.78;5016335;28;20062;-67
2022/07/26 08:01:02;;;;;;;1.33;0.50;;;;;;;29.25;35.85;100470.75;5009895;28;20036;-67
2022/07/26 08:03:27;;;;;;;1.88;0.73;;;;;;;29.55;35.31;100478.00;5009045;28;20281;-67
2022/07/26 08:05:52;;;;;;;0.90;0.50;;;;;;;29.81;34.27;100468.59;5008573;28;20072;-66
2022/07/26 08:08:20;;;;;;;1.23;0.50;;;;;;;29.28;34.69;100471.03;5006671;28;20288;-66
2022/07/26 08:10:45;;;;;;;1.65;0.70;;;;;;;29.08;34.33;100473.81;5007000;28;20319;-66
2022/07/26 08:13:11;;;;;;;2.05;0.50;;;;;;;29.40;33.51;100476.97;5007968;28;20038;-66
2022/07/26 08:15:36;;;;;;;2.00;0.80;;;;;;;30.11;32.77;100479.63;5007435;28;20557;-66
2022/07/26 08:18:02;;;;;;;2.30;0.60;;;;;;;30.15;31.94;100481.50;5007472;28;20272;-67
2022/07/26 08:20:27;;;;;;;;;;;;;;;29.86;32.46;100481.41;5007608;28;20034;-66
2022/07/26 08:22:52;;;;;;;1.10;0.57;;;;;;;29.86;33.26;100478.66;5007602;28;20156;-66
2022/07/26 08:25:18;;;;;;;0.55;0.30;;;;;;;29.76;33.34;100479.53;5009714;28;20034;-66
2022/07/26 08:27:44;;;;;;;0.82;0.47;;;;;;;29.23;34.07;100486.56;5011230;28;20053;-66
2022/07/26 08:30:09;;;;;;;;;;;;;;;28.53;35.37;100479.88;5013184;28;20537;-66
2022/07/26 08:32:34;;;;;;;3.00;0.80;;;;;;;28.13;35.45;100480.63;5013338;28;19964;-67
2022/07/26 08:35:00;;;;;;;1.00;0.60;;;;;;;28.17;35.85;100481.69;5012436;28;20030;-67
2022/07/26 08:37:25;;;;;;;1.15;0.50;;;;;;;28.91;35.40;100484.97;5011989;28;20115;-66
2022/07/26 08:39:51;;;;;;;1.75;0.70;;;;;;;29.82;34.06;100480.34;5019000;28;20366;-66
2022/07/26 08:42:18;;;;;;;1.63;0.60;;;;;;;31.19;32.26;100479.50;5012812;28;20054;-67
2022/07/26 08:44:46;;;;;;;1.77;0.90;;;;;;;31.65;30.46;100484.41;5030430;28;20427;-67
2022/07/26 08:47:18;;;;;;;2.28;0.70;;;;;;;31.89;30.93;100474.25;5014765;28;20057;-67
2022/07/26 08:49:44;;;;;;;0.95;0.45;;;;;;;32.01;30.43;100483.94;5009030;28;20393;-66
2022/07/26 08:52:11;;;;;;;1.70;0.50;;;;;;;31.91;30.46;100482.13;5008628;28;20423;-66
2022/07/26 08:54:45;;;;;;;2.03;0.63;;;;;;;31.95;30.28;100478.53;5010637;28;20042;-66
2022/07/26 08:57:10;;;;;;;1.67;0.60;;;;;;;31.49;30.41;100487.34;5010707;28;20034;-67
2022/07/26 08:59:36;;;;;;;2.13;0.60;;;;;;;31.05;31.28;100484.84;5010405;28;20384;-67
2022/07/26 09:02:07;;;;;;;1.80;0.50;;;;;;;30.53;31.44;100481.75;5010029;28;20074;-66
2022/07/26 09:04:35;;;;;;;1.45;0.70;;;;;;;30.01;32.60;100485.94;5008252;28;20033;-66
2022/07/26 09:07:05;;;;;;;1.15;0.50;;;;;;;29.78;32.23;100495.63;5009673;28;20404;-69
2022/07/26 09:09:32;;;;;;;1.75;0.70;;;;;;;29.53;32.98;100489.19;5009020;28;20809;-68
2022/07/26 09:11:58;;;;;;;;;;;;;;;28.78;33.21;100497.25;5010650;28;20038;-66
2022/07/26 09:14:35;;;;;;;3.10;0.80;;;;;;;28.29;34.44;100498.59;5008334;28;19920;-65
2022/07/26 09:17:00;;;;;;;1.90;0.80;;;;;;;27.87;34.66;100498.78;5010064;28;20220;-66
2022/07/26 09:19:27;;;;;;;2.43;0.70;;;;;;;27.45;35.63;100505.91;5007884;28;20883;-67
2022/07/26 09:21:54;;;;;;;1.92;0.60;;;;;;;27.38;35.71;100505.34;5008705;28;20512;-66
2022/07/26 09:24:41;;;;;;;1.45;0.50;;;;;;;27.45;36.31;100496.97;5008751;28;20463;-66
2022/07/26 09:27:11;;;;;;;3.33;1.17;;;;;;;27.74;35.60;100502.78;5009343;28;20471;-66
2022/07/26 09:29:47;;;;;;;2.65;0.82;;;;;;;28.11;34.77;100496.38;5008709;28;20026;-66
2022/07/26 09:32:32;;;;;;;1.63;0.70;;;;;;;28.03;34.37;100503.19;5009316;28;20407;-66
2022/07/26 09:35:20;;;;;;;1.83;0.80;;;;;;;28.02;34.43;100400.16;5007258;28;20400;-67
2022/07/26 09:37:47;;;;;;;1.13;0.60;;;;;;;27.83;35.32;100391.69;5009618;28;20399;-66
2022/07/26 09:40:14;;;;;;;1.83;0.60;;;;;;;27.68;35.64;100376.97;5012694;28;20041;-66
2022/07/26 09:42:58;;;;;;;1.90;0.60;;;;;;;27.48;35.83;100501.84;5012517;28;20045;-66
2022/07/26 09:45:25;;;;;;;1.35;0.70;;;;;;;27.14;36.33;100496.78;5011481;28;20033;-67
2022/07/26 09:47:51;;;;;;;1.40;0.60;;;;;;;26.85;36.92;100501.75;5007788;28;20133;-67
2022/07/26 09:50:22;;;;;;;2.33;1.10;;;;;;;26.74;37.01;100502.75;5007199;28;20156;-66
2022/07/26 09:52:56;;;;;;;;;;;;;;;26.70;37.06;100494.31;4999157;28;20053;-67
2022/07/26 09:55:22;;;;;;;2.72;0.80;;;;;;;28.25;35.60;100393.38;4990075;28;19918;-66
2022/07/26 09:57:49;;;;;;;2.58;0.93;;;;;;;29.49;33.09;100398.19;4989692;28;20394;-66
2022/07/26 10:00:15;;;;;;;1.63;0.77;;;;;;;29.14;33.02;100407.34;5002033;28;20042;-66
2022/07/26 10:02:40;;;;;;;1.85;0.75;;;;;;;28.82;34.17;100405.81;5009086;28;20449;-66
2022/07/26 10:05:06;;;;;;;1.42;0.60;;;;;;;28.81;34.11;100398.72;5009353;28;20077;-66
2022/07/26 10:07:32;;;;;;;3.30;1.08;;;;;;;28.99;34.24;100400.03;5009368;28;20034;-66
2022/07/26 10:10:04;;;;;;;2.17;0.80;;;;;;;29.59;33.38;100395.41;5008666;28;20034;-66
2022/07/26 10:12:31;;;;;;;1.15;0.60;;;;;;;;;;5009006;28;20536;-66
2022/07/26 10:14:56;;;;;;;3.00;0.80;;;;;;;31.78;nan;100412.59;5008913;28;20038;-67
2022/07/26 10:17:27;;;;;;;3.97;0.88;;;;;;;31.23;nan;100404.06;5008994;28;20044;-67
2022/07/26 10:20:04;;;;;;;1.92;0.80;;;;;;;30.25;nan;100412.41;5007850;28;20100;-66
2022/07/26 10:22:42;;;;;;;1.33;0.60;;;;;;;29.48;nan;100407.44;5008905;28;20045;-65
2022/07/26 10:25:16;;;;;;;0.93;0.60;;;;;;;28.99;nan;100410.94;5007795;28;20073;-66
2022/07/26 10:27:53;;;;;;;2.03;0.70;;;;;;;28.28;nan;100409.94;5008746;28;20042;-66
2022/07/26 10:30:18;;;;;;;2.03;0.52;;;;;;;27.98;nan;100405.28;5008854;28;20118;-66
2022/07/26 10:33:01;;;;;;;1.10;0.50;;;;;;;28.01;nan;100404.78;5009300;28;20046;-66
2022/07/26 10:35:35;;;;;;;1.20;0.50;;;;;;;28.36;nan;100408.56;5008658;28;20339;-65
2022/07/26 10:38:03;;;;;;;1.17;0.60;;;;;;;29.71;nan;100407.91;5008178;28;20036;-66
2022/07/26 10:40:29;;;;;;;1.27;0.60;;;;;;;32.97;nan;100414.97;5006407;28;20034;-68
2022/07/26 10:43:16;;;;;;;0.82;0.60;;;;;;;35.44;nan;100372.78;5000396;28;20550;-66
2022/07/26 10:45:42;;;;;;;0.90;0.50;;;;;;;36.87;nan;100422.25;5006126;28;20723;-66
2022/07/26 10:48:19;;;;;;;5.15;0.70;;;;;;;38.07;nan;100407.19;5007442;28;20037;-67
2022/07/26 10:50:47;;;;;;;0.80;0.40;;;;;;;36.75;nan;100406.44;5007832;28;20034;-67
2022/07/26 10:53:18;;;;;;;0.88;0.60;;;;;;;34.68;nan;100406.06;5008289;28;20038;-66
2022/07/26 10:55:52;;;;;;;1.00;0.60;;;;;;;32.45;nan;100403.31;5008452;28;20502;-67
2022/07/26 10:58:18;;;;;;;1.42;0.63;;;;;;;30.94;nan;100393.19;5008170;28;20482;-66
2022/07/26 11:01:01;;;;;;;2.20;0.50;;;;;;;30.09;nan;100498.97;5006065;28;20041;-66
2022/07/26 11:03:40;;;;;;;2.13;0.95;;;;;;;29.65;nan;100499.72;5008242;28;20030;-66
2022/07/26 11:06:12;;;;;;;2.20;0.88;;;;;;;30.78;nan;100485.38;5008065;28;20077;-66
2022/07/26 11:08:38;;;;;;;1.25;0.60;;;;;;;32.38;nan;100486.63;5007585;28;20495;-66
2022/07/26 11:11:04;;;;;;;1.00;0.60;;;;;;;35.15;nan;100480.59;5007371;28;20042;-66
2022/07/26 11:13:32;;;;;;;4.03;0.65;;;;;;;34.85;nan;100476.75;5006813;28;20030;-66
2022/07/26 11:16:00;;;;;;;1.45;0.55;;;;;;;34.03;nan;100485.06;5006400;28;20044;-66
2022/07/26 11:18:29;;;;;;;2.53;0.90;;;;;;;33.39;nan;100481.53;5005856;28;20037;-67
2022/07/26 11:20:56;;;;;;;1.10;0.50;;;;;;;31.99;nan;100475.19;5007542;28;20401;-66
2022/07/26 11:23:30;;;;;;;0.98;0.50;;;;;;;31.29;nan;100474.72;5004381;28;20030;-66
2022/07/26 11:26:00;;;;;;;2.38;0.70;;;;;;;30.78;nan;100474.44;5006827;28;20498;-66
2022/07/26 11:28:25;;;;;;;1.52;0.70;;;;;;;30.12;nan;100476.59;5005853;28;20038;-66
2022/07/26 11:30:58;;;;;;;1.17;0.60;;;;;;;31.67;nan;100474.00;5007530;28;20034;-66